Bass River, Massachusetts
Current Conditions -  °F | °C
As of 4:16 AM on Thursday 23 Oct 2014 (Local Time) from KHYA Reporting Station
Light Rain Light Rain  
Wind Chill: 16°   Ceiling: 1000
Heat Index: 16°   Visibility: 9mi
Dew Point: 14°   Wind: 5mph
Humidity: 93%   Direction: NA
Pressure: 29.54"   Gusts: NA
Location:  41.6739°N, 70.1961°W
Report Text: KHYA 230816Z VRB04KT 9SM -RA BKN010 BKN090 OVC110 16/14 A2954 RMK AO2 RAB13 CIG 006V011 P0001 T01560144
Loading
Personal Weather Stations






























Interactive Weather Map
Tropical Storm Tracking
New forecast layout! Learn more

10-Day Weather Forecast

Advertisements
Track Severe Weather on mobile